sensor_id;sensor_type;location;lat;lon;timestamp;temperature;humidity
52387;DHT22;38317;53.084;6.960;2023-05-07T00:00:00;11.90;99.90
52387;DHT22;38317;53.084;6.960;2023-05-07T00:02:25;11.90;99.90
52387;DHT22;38317;53.084;6.960;2023-05-07T00:04:51;11.90;99.90
52387;DHT22;38317;53.084;6.960;2023-05-07T00:07:17;11.90;99.90
52387;DHT22;38317;53.084;6.960;2023-05-07T00:09:43;11.90;99.90
52387;DHT22;38317;53.084;6.960;2023-05-07T00:12:10;11.90;99.90
52387;DHT22;38317;53.084;6.960;2023-05-07T00:14:35;11.80;99.90
52387;DHT22;38317;53.084;6.960;2023-05-07T00:17:01;12.00;99.90
52387;DHT22;38317;53.084;6.960;2023-05-07T00:19:27;12.00;99.90
52387;DHT22;38317;53.084;6.960;2023-05-07T00:21:53;11.80;99.90
52387;DHT22;38317;53.084;6.960;2023-05-07T00:24:19;11.90;99.90
52387;DHT22;38317;53.084;6.960;2023-05-07T00:26:45;11.80;99.90
52387;DHT22;38317;53.084;6.960;2023-05-07T00:29:11;11.70;99.90
52387;DHT22;38317;53.084;6.960;2023-05-07T00:31:37;11.70;99.90
52387;DHT22;38317;53.084;6.960;2023-05-07T00:34:02;11.90;99.90
52387;DHT22;38317;53.084;6.960;2023-05-07T00:36:28;11.70;99.90
52387;DHT22;38317;53.084;6.960;2023-05-07T00:38:56;11.70;99.90
52387;DHT22;38317;53.084;6.960;2023-05-07T00:41:22;11.60;99.90
52387;DHT22;38317;53.084;6.960;2023-05-07T00:43:48;11.70;99.90
52387;DHT22;38317;53.084;6.960;2023-05-07T00:46:14;11.60;99.90
52387;DHT22;38317;53.084;6.960;2023-05-07T00:48:41;11.60;99.90
52387;DHT22;38317;53.084;6.960;2023-05-07T00:51:07;11.70;99.90
52387;DHT22;38317;53.084;6.960;2023-05-07T00:53:32;11.50;99.90
52387;DHT22;38317;53.084;6.960;2023-05-07T00:55:58;11.60;99.90
52387;DHT22;38317;53.084;6.960;2023-05-07T00:58:26;11.60;99.90
52387;DHT22;38317;53.084;6.960;2023-05-07T01:00:52;11.60;99.90
52387;DHT22;38317;53.084;6.960;2023-05-07T01:03:18;11.60;99.90
52387;DHT22;38317;53.084;6.960;2023-05-07T01:05:45;11.50;99.90
52387;DHT22;38317;53.084;6.960;2023-05-07T01:08:12;11.50;99.90
52387;DHT22;38317;53.084;6.960;2023-05-07T01:10:39;11.60;99.90
52387;DHT22;38317;53.084;6.960;2023-05-07T01:13:09;11.50;99.90
52387;DHT22;38317;53.084;6.960;2023-05-07T01:15:36;11.40;99.90
52387;DHT22;38317;53.084;6.960;2023-05-07T01:18:01;11.50;99.90
52387;DHT22;38317;53.084;6.960;2023-05-07T01:20:28;11.50;99.90
52387;DHT22;38317;53.084;6.960;2023-05-07T01:22:54;11.50;99.90
52387;DHT22;38317;53.084;6.960;2023-05-07T01:25:20;11.40;99.90
52387;DHT22;38317;53.084;6.960;2023-05-07T01:27:46;11.30;99.90
52387;DHT22;38317;53.084;6.960;2023-05-07T01:30:12;11.40;99.90
52387;DHT22;38317;53.084;6.960;2023-05-07T01:35:11;11.30;99.90
52387;DHT22;38317;53.084;6.960;2023-05-07T01:37:38;11.30;99.90
52387;DHT22;38317;53.084;6.960;2023-05-07T01:40:06;11.40;99.90
52387;DHT22;38317;53.084;6.960;2023-05-07T01:42:33;11.30;99.90
52387;DHT22;38317;53.084;6.960;2023-05-07T01:44:59;11.40;99.90
52387;DHT22;38317;53.084;6.960;2023-05-07T01:47:25;11.30;99.90
52387;DHT22;38317;53.084;6.960;2023-05-07T01:49:51;11.30;99.90
52387;DHT22;38317;53.084;6.960;2023-05-07T01:52:17;11.40;99.90
52387;DHT22;38317;53.084;6.960;2023-05-07T01:54:43;11.30;99.90
52387;DHT22;38317;53.084;6.960;2023-05-07T01:57:08;11.20;99.90
52387;DHT22;38317;53.084;6.960;2023-05-07T01:59:34;11.20;99.90
52387;DHT22;38317;53.084;6.960;2023-05-07T02:02:00;11.20;99.90
52387;DHT22;38317;53.084;6.960;2023-05-07T02:04:26;11.30;99.90
52387;DHT22;38317;53.084;6.960;2023-05-07T02:06:51;11.30;99.90
52387;DHT22;38317;53.084;6.960;2023-05-07T02:09:18;11.20;99.90
52387;DHT22;38317;53.084;6.960;2023-05-07T02:11:44;11.40;99.90
52387;DHT22;38317;53.084;6.960;2023-05-07T02:14:13;11.20;99.90
52387;DHT22;38317;53.084;6.960;2023-05-07T02:16:38;11.10;99.90
52387;DHT22;38317;53.084;6.960;2023-05-07T02:19:04;11.10;99.90
52387;DHT22;38317;53.084;6.960;2023-05-07T02:21:30;11.20;99.90
52387;DHT22;38317;53.084;6.960;2023-05-07T02:23:56;11.10;99.90
52387;DHT22;38317;53.084;6.960;2023-05-07T02:26:22;11.10;99.90
52387;DHT22;38317;53.084;6.960;2023-05-07T02:28:47;11.10;99.90
52387;DHT22;38317;53.084;6.960;2023-05-07T02:31:13;11.10;99.90
52387;DHT22;38317;53.084;6.960;2023-05-07T02:33:38;11.20;99.90
52387;DHT22;38317;53.084;6.960;2023-05-07T02:36:09;10.70;99.90
52387;DHT22;38317;53.084;6.960;2023-05-07T02:38:35;11.00;99.90
52387;DHT22;38317;53.084;6.960;2023-05-07T02:41:00;11.10;99.90
52387;DHT22;38317;53.084;6.960;2023-05-07T02:43:26;11.00;99.90
52387;DHT22;38317;53.084;6.960;2023-05-07T02:48:28;11.10;99.90
52387;DHT22;38317;53.084;6.960;2023-05-07T02:50:54;11.00;99.90
52387;DHT22;38317;53.084;6.960;2023-05-07T02:53:19;10.90;99.90
52387;DHT22;38317;53.084;6.960;2023-05-07T02:55:45;11.00;99.90
52387;DHT22;38317;53.084;6.960;2023-05-07T02:58:11;11.00;99.90
52387;DHT22;38317;53.084;6.960;2023-05-07T03:00:36;11.10;99.90
52387;DHT22;38317;53.084;6.960;2023-05-07T03:03:02;11.10;99.90
52387;DHT22;38317;53.084;6.960;2023-05-07T03:05:28;10.90;99.90
52387;DHT22;38317;53.084;6.960;2023-05-07T03:07:54;11.00;99.90
52387;DHT22;38317;53.084;6.960;2023-05-07T03:10:19;11.10;99.90
52387;DHT22;38317;53.084;6.960;2023-05-07T03:12:45;11.00;99.90
52387;DHT22;38317;53.084;6.960;2023-05-07T03:15:11;10.90;99.90
52387;DHT22;38317;53.084;6.960;2023-05-07T03:17:38;10.90;99.90
52387;DHT22;38317;53.084;6.960;2023-05-07T03:20:04;10.80;99.90
52387;DHT22;38317;53.084;6.960;2023-05-07T03:22:32;11.00;99.90
52387;DHT22;38317;53.084;6.960;2023-05-07T03:24:58;10.90;99.90
52387;DHT22;38317;53.084;6.960;2023-05-07T03:27:24;10.90;99.90
52387;DHT22;38317;53.084;6.960;2023-05-07T03:29:49;10.80;99.90
52387;DHT22;38317;53.084;6.960;2023-05-07T03:32:15;10.60;99.90
52387;DHT22;38317;53.084;6.960;2023-05-07T03:34:41;10.70;99.90
52387;DHT22;38317;53.084;6.960;2023-05-07T03:37:07;10.70;99.90
52387;DHT22;38317;53.084;6.960;2023-05-07T03:39:32;10.70;99.90
52387;DHT22;38317;53.084;6.960;2023-05-07T03:41:58;10.90;99.90
52387;DHT22;38317;53.084;6.960;2023-05-07T03:44:24;10.80;99.90
52387;DHT22;38317;53.084;6.960;2023-05-07T03:46:49;10.70;99.90
52387;DHT22;38317;53.084;6.960;2023-05-07T03:49:15;10.70;99.90
52387;DHT22;38317;53.084;6.960;2023-05-07T03:51:41;10.70;99.90
52387;DHT22;38317;53.084;6.960;2023-05-07T03:54:07;10.70;99.90
52387;DHT22;38317;53.084;6.960;2023-05-07T03:56:33;10.70;99.90
52387;DHT22;38317;53.084;6.960;2023-05-07T03:58:59;10.70;99.90
52387;DHT22;38317;53.084;6.960;2023-05-07T04:01:25;10.70;99.90
52387;DHT22;38317;53.084;6.960;2023-05-07T04:03:51;10.70;99.90
52387;DHT22;38317;53.084;6.960;2023-05-07T04:06:16;10.90;99.90
52387;DHT22;38317;53.084;6.960;2023-05-07T04:08:46;10.60;99.90
52387;DHT22;38317;53.084;6.960;2023-05-07T04:11:11;10.60;99.90
52387;DHT22;38317;53.084;6.960;2023-05-07T04:13:37;10.60;99.90
52387;DHT22;38317;53.084;6.960;2023-05-07T04:16:04;10.60;99.90
52387;DHT22;38317;53.084;6.960;2023-05-07T04:18:30;10.70;99.90
52387;DHT22;38317;53.084;6.960;2023-05-07T04:20:56;10.50;99.90
52387;DHT22;38317;53.084;6.960;2023-05-07T04:23:21;10.60;99.90
52387;DHT22;38317;53.084;6.960;2023-05-07T04:25:47;10.50;99.90
52387;DHT22;38317;53.084;6.960;2023-05-07T04:28:13;10.50;99.90
52387;DHT22;38317;53.084;6.960;2023-05-07T04:30:39;10.50;99.90
52387;DHT22;38317;53.084;6.960;2023-05-07T04:33:06;10.50;99.90
52387;DHT22;38317;53.084;6.960;2023-05-07T04:35:32;10.60;99.90
52387;DHT22;38317;53.084;6.960;2023-05-07T04:37:58;10.50;99.90
52387;DHT22;38317;53.084;6.960;2023-05-07T04:40:24;10.50;99.90
52387;DHT22;38317;53.084;6.960;2023-05-07T04:42:50;10.50;99.90
52387;DHT22;38317;53.084;6.960;2023-05-07T04:45:16;10.60;99.90
52387;DHT22;38317;53.084;6.960;2023-05-07T04:47:42;10.60;99.90
52387;DHT22;38317;53.084;6.960;2023-05-07T04:50:08;10.50;99.90
52387;DHT22;38317;53.084;6.960;2023-05-07T04:52:34;10.60;99.90
52387;DHT22;38317;53.084;6.960;2023-05-07T04:55:00;10.50;99.90
52387;DHT22;38317;53.084;6.960;2023-05-07T04:57:26;10.60;99.90
52387;DHT22;38317;53.084;6.960;2023-05-07T04:59:53;10.50;99.90
52387;DHT22;38317;53.084;6.960;2023-05-07T05:02:18;10.90;99.90
52387;DHT22;38317;53.084;6.960;2023-05-07T05:04:45;10.50;99.90
52387;DHT22;38317;53.084;6.960;2023-05-07T05:07:10;10.50;99.90
52387;DHT22;38317;53.084;6.960;2023-05-07T05:09:36;10.70;99.90
52387;DHT22;38317;53.084;6.960;2023-05-07T05:12:02;10.60;99.90
52387;DHT22;38317;53.084;6.960;2023-05-07T05:14:29;10.50;99.90
52387;DHT22;38317;53.084;6.960;2023-05-07T05:16:54;10.40;99.90
52387;DHT22;38317;53.084;6.960;2023-05-07T05:19:20;10.60;99.90
52387;DHT22;38317;53.084;6.960;2023-05-07T05:21:46;10.60;99.90
52387;DHT22;38317;53.084;6.960;2023-05-07T05:24:12;10.50;99.90
52387;DHT22;38317;53.084;6.960;2023-05-07T05:26:37;10.60;99.90
52387;DHT22;38317;53.084;6.960;2023-05-07T05:29:03;10.60;99.90
52387;DHT22;38317;53.084;6.960;2023-05-07T05:31:29;10.60;99.90
52387;DHT22;38317;53.084;6.960;2023-05-07T05:33:55;10.50;99.90
52387;DHT22;38317;53.084;6.960;2023-05-07T05:36:20;10.80;99.90
52387;DHT22;38317;53.084;6.960;2023-05-07T05:38:46;10.50;99.90
52387;DHT22;38317;53.084;6.960;2023-05-07T05:41:12;10.60;99.90
52387;DHT22;38317;53.084;6.960;2023-05-07T05:43:38;10.70;99.90
52387;DHT22;38317;53.084;6.960;2023-05-07T05:46:03;10.60;99.90
52387;DHT22;38317;53.084;6.960;2023-05-07T05:48:30;10.60;99.90
52387;DHT22;38317;53.084;6.960;2023-05-07T05:50:56;10.60;99.90
52387;DHT22;38317;53.084;6.960;2023-05-07T05:53:21;10.50;99.90
52387;DHT22;38317;53.084;6.960;2023-05-07T05:55:47;10.60;99.90
52387;DHT22;38317;53.084;6.960;2023-05-07T05:58:13;10.70;99.90
52387;DHT22;38317;53.084;6.960;2023-05-07T06:00:40;10.50;99.90
52387;DHT22;38317;53.084;6.960;2023-05-07T06:03:06;10.60;99.90
52387;DHT22;38317;53.084;6.960;2023-05-07T06:05:32;10.70;99.90
52387;DHT22;38317;53.084;6.960;2023-05-07T06:07:57;10.70;99.90
52387;DHT22;38317;53.084;6.960;2023-05-07T06:10:23;10.70;99.90
52387;DHT22;38317;53.084;6.960;2023-05-07T06:12:49;10.70;99.90
52387;DHT22;38317;53.084;6.960;2023-05-07T06:15:15;10.90;99.90
52387;DHT22;38317;53.084;6.960;2023-05-07T06:17:41;10.80;99.90
52387;DHT22;38317;53.084;6.960;2023-05-07T06:20:07;10.80;99.90
52387;DHT22;38317;53.084;6.960;2023-05-07T06:22:33;10.80;99.90
52387;DHT22;38317;53.084;6.960;2023-05-07T06:24:58;10.70;99.90
52387;DHT22;38317;53.084;6.960;2023-05-07T06:27:24;10.80;99.90
52387;DHT22;38317;53.084;6.960;2023-05-07T06:29:50;10.70;99.90
52387;DHT22;38317;53.084;6.960;2023-05-07T06:32:16;10.80;99.90
52387;DHT22;38317;53.084;6.960;2023-05-07T06:34:42;11.00;99.90
52387;DHT22;38317;53.084;6.960;2023-05-07T06:37:08;10.70;99.90
52387;DHT22;38317;53.084;6.960;2023-05-07T06:39:34;10.90;99.90
52387;DHT22;38317;53.084;6.960;2023-05-07T06:42:00;10.90;99.90
52387;DHT22;38317;53.084;6.960;2023-05-07T06:44:27;10.90;99.90
52387;DHT22;38317;53.084;6.960;2023-05-07T06:46:53;10.90;99.90
52387;DHT22;38317;53.084;6.960;2023-05-07T06:49:18;11.10;99.90
52387;DHT22;38317;53.084;6.960;2023-05-07T06:51:44;11.00;99.90
52387;DHT22;38317;53.084;6.960;2023-05-07T06:54:10;10.80;99.90
52387;DHT22;38317;53.084;6.960;2023-05-07T06:56:35;10.90;99.90
52387;DHT22;38317;53.084;6.960;2023-05-07T06:59:02;11.00;99.90
52387;DHT22;38317;53.084;6.960;2023-05-07T07:01:28;10.90;99.90
52387;DHT22;38317;53.084;6.960;2023-05-07T07:03:54;10.90;99.90
52387;DHT22;38317;53.084;6.960;2023-05-07T07:06:20;10.70;99.90
52387;DHT22;38317;53.084;6.960;2023-05-07T07:08:45;11.10;99.90
52387;DHT22;38317;53.084;6.960;2023-05-07T07:11:11;11.00;99.90
52387;DHT22;38317;53.084;6.960;2023-05-07T07:13:37;11.10;99.90
52387;DHT22;38317;53.084;6.960;2023-05-07T07:16:03;11.30;99.90
52387;DHT22;38317;53.084;6.960;2023-05-07T07:18:29;11.20;99.90
52387;DHT22;38317;53.084;6.960;2023-05-07T07:20:55;11.10;99.90
52387;DHT22;38317;53.084;6.960;2023-05-07T07:23:20;11.10;99.90
52387;DHT22;38317;53.084;6.960;2023-05-07T07:25:46;11.20;99.90
52387;DHT22;38317;53.084;6.960;2023-05-07T07:28:12;11.20;99.90
52387;DHT22;38317;53.084;6.960;2023-05-07T07:30:38;11.60;99.90
52387;DHT22;38317;53.084;6.960;2023-05-07T07:33:04;11.30;99.90
52387;DHT22;38317;53.084;6.960;2023-05-07T07:35:36;11.60;99.90
52387;DHT22;38317;53.084;6.960;2023-05-07T07:38:01;11.40;99.90
52387;DHT22;38317;53.084;6.960;2023-05-07T07:40:27;11.50;99.90
52387;DHT22;38317;53.084;6.960;2023-05-07T07:42:53;11.40;99.90
52387;DHT22;38317;53.084;6.960;2023-05-07T07:45:19;11.50;99.90
52387;DHT22;38317;53.084;6.960;2023-05-07T07:47:45;11.50;99.90
52387;DHT22;38317;53.084;6.960;2023-05-07T07:50:11;11.70;99.90
52387;DHT22;38317;53.084;6.960;2023-05-07T07:52:37;11.70;99.90
52387;DHT22;38317;53.084;6.960;2023-05-07T07:55:03;11.70;99.90
52387;DHT22;38317;53.084;6.960;2023-05-07T07:57:30;11.80;99.90
52387;DHT22;38317;53.084;6.960;2023-05-07T07:59:56;11.80;99.90
52387;DHT22;38317;53.084;6.960;2023-05-07T08:02:21;11.80;99.90
52387;DHT22;38317;53.084;6.960;2023-05-07T08:04:47;11.80;99.90
52387;DHT22;38317;53.084;6.960;2023-05-07T08:07:13;11.90;99.90
52387;DHT22;38317;53.084;6.960;2023-05-07T08:09:40;11.90;99.90
52387;DHT22;38317;53.084;6.960;2023-05-07T08:12:06;11.90;99.90
52387;DHT22;38317;53.084;6.960;2023-05-07T08:14:33;11.80;99.90
52387;DHT22;38317;53.084;6.960;2023-05-07T08:16:59;11.80;99.90
52387;DHT22;38317;53.084;6.960;2023-05-07T08:19:26;12.30;99.90
52387;DHT22;38317;53.084;6.960;2023-05-07T08:21:51;12.30;99.90
52387;DHT22;38317;53.084;6.960;2023-05-07T08:24:17;12.00;99.90
52387;DHT22;38317;53.084;6.960;2023-05-07T08:26:44;12.20;99.90
52387;DHT22;38317;53.084;6.960;2023-05-07T08:29:09;12.20;99.90
52387;DHT22;38317;53.084;6.960;2023-05-07T08:31:35;12.30;99.90
52387;DHT22;38317;53.084;6.960;2023-05-07T08:34:01;12.00;99.90
52387;DHT22;38317;53.084;6.960;2023-05-07T08:36:27;12.30;99.90
52387;DHT22;38317;53.084;6.960;2023-05-07T08:38:54;12.30;99.90
52387;DHT22;38317;53.084;6.960;2023-05-07T08:41:20;12.40;99.90
52387;DHT22;38317;53.084;6.960;2023-05-07T08:43:50;12.40;99.90
52387;DHT22;38317;53.084;6.960;2023-05-07T08:46:20;12.40;99.90
52387;DHT22;38317;53.084;6.960;2023-05-07T08:48:51;12.60;99.90
52387;DHT22;38317;53.084;6.960;2023-05-07T08:51:19;12.60;99.90
52387;DHT22;38317;53.084;6.960;2023-05-07T08:53:47;12.80;99.90
52387;DHT22;38317;53.084;6.960;2023-05-07T08:56:17;12.90;99.90
52387;DHT22;38317;53.084;6.960;2023-05-07T08:58:43;12.80;99.90
52387;DHT22;38317;53.084;6.960;2023-05-07T09:01:13;13.00;99.90
52387;DHT22;38317;53.084;6.960;2023-05-07T09:03:39;12.90;99.90
52387;DHT22;38317;53.084;6.960;2023-05-07T09:06:06;13.10;99.90
52387;DHT22;38317;53.084;6.960;2023-05-07T09:08:35;13.00;99.90
52387;DHT22;38317;53.084;6.960;2023-05-07T09:11:02;13.20;99.90
52387;DHT22;38317;53.084;6.960;2023-05-07T09:13:28;13.30;99.90
52387;DHT22;38317;53.084;6.960;2023-05-07T09:15:55;13.20;99.90
52387;DHT22;38317;53.084;6.960;2023-05-07T09:18:21;13.10;99.90
52387;DHT22;38317;53.084;6.960;2023-05-07T09:20:47;13.30;99.90
52387;DHT22;38317;53.084;6.960;2023-05-07T09:23:12;13.30;99.90
52387;DHT22;38317;53.084;6.960;2023-05-07T09:25:39;13.30;99.90
52387;DHT22;38317;53.084;6.960;2023-05-07T09:28:05;13.30;99.90
52387;DHT22;38317;53.084;6.960;2023-05-07T09:30:35;13.40;99.90
52387;DHT22;38317;53.084;6.960;2023-05-07T09:33:03;13.30;99.90
52387;DHT22;38317;53.084;6.960;2023-05-07T09:35:30;13.40;99.90
52387;DHT22;38317;53.084;6.960;2023-05-07T09:37:58;13.40;99.90
52387;DHT22;38317;53.084;6.960;2023-05-07T09:40:29;13.60;99.90
52387;DHT22;38317;53.084;6.960;2023-05-07T09:42:55;13.80;99.90
52387;DHT22;38317;53.084;6.960;2023-05-07T09:45:28;14.00;99.90
52387;DHT22;38317;53.084;6.960;2023-05-07T09:47:55;14.10;99.90
52387;DHT22;38317;53.084;6.960;2023-05-07T09:50:36;14.30;99.90
52387;DHT22;38317;53.084;6.960;2023-05-07T09:53:03;14.20;99.90
52387;DHT22;38317;53.084;6.960;2023-05-07T09:55:29;14.50;99.90
52387;DHT22;38317;53.084;6.960;2023-05-07T09:57:55;14.40;99.90
52387;DHT22;38317;53.084;6.960;2023-05-07T10:00:22;14.60;99.90
52387;DHT22;38317;53.084;6.960;2023-05-07T10:02:50;14.50;99.90
52387;DHT22;38317;53.084;6.960;2023-05-07T10:05:21;14.40;99.90
52387;DHT22;38317;53.084;6.960;2023-05-07T10:07:47;14.60;99.90
52387;DHT22;38317;53.084;6.960;2023-05-07T10:10:14;14.50;99.90
52387;DHT22;38317;53.084;6.960;2023-05-07T10:12:41;14.50;99.90
52387;DHT22;38317;53.084;6.960;2023-05-07T10:15:08;14.60;99.90
52387;DHT22;38317;53.084;6.960;2023-05-07T10:17:36;14.80;99.90
52387;DHT22;38317;53.084;6.960;2023-05-07T10:20:02;15.10;99.90
52387;DHT22;38317;53.084;6.960;2023-05-07T10:22:32;15.10;99.90
52387;DHT22;38317;53.084;6.960;2023-05-07T10:24:59;15.20;99.90
52387;DHT22;38317;53.084;6.960;2023-05-07T10:27:28;15.40;99.90
52387;DHT22;38317;53.084;6.960;2023-05-07T10:32:52;15.40;99.90
52387;DHT22;38317;53.084;6.960;2023-05-07T10:35:23;15.30;99.90
52387;DHT22;38317;53.084;6.960;2023-05-07T10:37:50;15.20;99.90
52387;DHT22;38317;53.084;6.960;2023-05-07T10:40:16;15.10;99.90
52387;DHT22;38317;53.084;6.960;2023-05-07T10:43:00;15.10;99.90
52387;DHT22;38317;53.084;6.960;2023-05-07T10:45:27;15.20;99.90
52387;DHT22;38317;53.084;6.960;2023-05-07T10:48:06;15.50;99.90
52387;DHT22;38317;53.084;6.960;2023-05-07T10:50:33;15.60;99.90
52387;DHT22;38317;53.084;6.960;2023-05-07T10:55:51;15.60;99.90
52387;DHT22;38317;53.084;6.960;2023-05-07T10:58:30;15.90;99.90
52387;DHT22;38317;53.084;6.960;2023-05-07T11:01:01;15.90;99.90
52387;DHT22;38317;53.084;6.960;2023-05-07T11:03:28;16.30;99.90
52387;DHT22;38317;53.084;6.960;2023-05-07T11:11:17;16.80;99.90
52387;DHT22;38317;53.084;6.960;2023-05-07T11:13:47;16.80;99.90
52387;DHT22;38317;53.084;6.960;2023-05-07T11:16:21;16.70;99.90
52387;DHT22;38317;53.084;6.960;2023-05-07T11:18:55;16.60;99.90
52387;DHT22;38317;53.084;6.960;2023-05-07T11:21:38;16.90;99.90
52387;DHT22;38317;53.084;6.960;2023-05-07T11:24:13;17.10;99.90
52387;DHT22;38317;53.084;6.960;2023-05-07T11:26:48;17.10;99.90
52387;DHT22;38317;53.084;6.960;2023-05-07T11:31:41;17.10;99.90
52387;DHT22;38317;53.084;6.960;2023-05-07T11:34:07;17.10;99.90
52387;DHT22;38317;53.084;6.960;2023-05-07T11:36:34;16.90;99.90
52387;DHT22;38317;53.084;6.960;2023-05-07T11:39:00;16.90;99.90
52387;DHT22;38317;53.084;6.960;2023-05-07T11:41:35;17.00;99.90
52387;DHT22;38317;53.084;6.960;2023-05-07T11:44:02;17.10;99.90
52387;DHT22;38317;53.084;6.960;2023-05-07T11:46:28;17.10;99.90
52387;DHT22;38317;53.084;6.960;2023-05-07T11:48:55;17.10;99.90
52387;DHT22;38317;53.084;6.960;2023-05-07T11:51:23;17.40;99.90
52387;DHT22;38317;53.084;6.960;2023-05-07T11:53:50;17.50;99.90
52387;DHT22;38317;53.084;6.960;2023-05-07T11:56:17;17.50;99.90
52387;DHT22;38317;53.084;6.960;2023-05-07T11:58:47;17.40;99.90
52387;DHT22;38317;53.084;6.960;2023-05-07T12:01:13;17.60;99.90
52387;DHT22;38317;53.084;6.960;2023-05-07T12:03:41;17.80;99.90
52387;DHT22;38317;53.084;6.960;2023-05-07T12:06:16;17.70;99.90
52387;DHT22;38317;53.084;6.960;2023-05-07T12:08:43;17.80;99.90
52387;DHT22;38317;53.084;6.960;2023-05-07T12:11:13;18.00;99.90
52387;DHT22;38317;53.084;6.960;2023-05-07T12:13:40;18.10;99.90
52387;DHT22;38317;53.084;6.960;2023-05-07T12:16:07;18.20;99.90
52387;DHT22;38317;53.084;6.960;2023-05-07T12:18:34;18.00;99.90
52387;DHT22;38317;53.084;6.960;2023-05-07T12:21:00;18.20;99.90
52387;DHT22;38317;53.084;6.960;2023-05-07T12:23:26;18.00;99.90
52387;DHT22;38317;53.084;6.960;2023-05-07T12:25:52;18.20;99.90
52387;DHT22;38317;53.084;6.960;2023-05-07T12:28:19;18.10;99.90
52387;DHT22;38317;53.084;6.960;2023-05-07T12:30:49;18.10;99.90
52387;DHT22;38317;53.084;6.960;2023-05-07T12:33:23;18.10;99.90
52387;DHT22;38317;53.084;6.960;2023-05-07T12:35:49;18.20;99.90
52387;DHT22;38317;53.084;6.960;2023-05-07T12:38:16;18.10;99.90
52387;DHT22;38317;53.084;6.960;2023-05-07T12:40:44;18.00;99.90
52387;DHT22;38317;53.084;6.960;2023-05-07T12:45:49;17.90;99.90
52387;DHT22;38317;53.084;6.960;2023-05-07T12:48:15;17.90;99.90
52387;DHT22;38317;53.084;6.960;2023-05-07T12:50:42;17.90;99.90
52387;DHT22;38317;53.084;6.960;2023-05-07T12:53:10;18.30;99.90
52387;DHT22;38317;53.084;6.960;2023-05-07T12:55:54;18.40;99.90
52387;DHT22;38317;53.084;6.960;2023-05-07T12:58:23;18.40;99.90
52387;DHT22;38317;53.084;6.960;2023-05-07T13:00:50;18.40;99.90
52387;DHT22;38317;53.084;6.960;2023-05-07T13:03:29;18.50;99.90
52387;DHT22;38317;53.084;6.960;2023-05-07T13:06:01;18.60;99.90
52387;DHT22;38317;53.084;6.960;2023-05-07T13:08:29;18.90;99.90
52387;DHT22;38317;53.084;6.960;2023-05-07T13:10:57;19.10;99.90
52387;DHT22;38317;53.084;6.960;2023-05-07T13:13:22;19.10;99.90
52387;DHT22;38317;53.084;6.960;2023-05-07T13:15:48;19.20;99.90
52387;DHT22;38317;53.084;6.960;2023-05-07T13:18:14;19.00;99.90
52387;DHT22;38317;53.084;6.960;2023-05-07T13:20:40;18.90;99.90
52387;DHT22;38317;53.084;6.960;2023-05-07T13:23:06;18.90;99.90
52387;DHT22;38317;53.084;6.960;2023-05-07T13:25:31;18.90;99.90
52387;DHT22;38317;53.084;6.960;2023-05-07T13:27:57;18.90;99.90
52387;DHT22;38317;53.084;6.960;2023-05-07T13:30:23;19.00;99.90
52387;DHT22;38317;53.084;6.960;2023-05-07T13:32:55;17.40;99.90
52387;DHT22;38317;53.084;6.960;2023-05-07T13:35:21;19.30;99.90
52387;DHT22;38317;53.084;6.960;2023-05-07T13:37:47;19.30;99.90
52387;DHT22;38317;53.084;6.960;2023-05-07T13:40:14;19.40;99.90
52387;DHT22;38317;53.084;6.960;2023-05-07T13:42:40;19.60;99.90
52387;DHT22;38317;53.084;6.960;2023-05-07T13:45:07;19.60;99.90
52387;DHT22;38317;53.084;6.960;2023-05-07T13:47:34;19.60;99.90
52387;DHT22;38317;53.084;6.960;2023-05-07T13:50:01;19.70;99.90
52387;DHT22;38317;53.084;6.960;2023-05-07T13:52:26;19.60;99.90
52387;DHT22;38317;53.084;6.960;2023-05-07T13:54:52;19.60;99.90
52387;DHT22;38317;53.084;6.960;2023-05-07T13:57:18;19.70;99.90
52387;DHT22;38317;53.084;6.960;2023-05-07T13:59:44;19.70;99.90
52387;DHT22;38317;53.084;6.960;2023-05-07T14:02:09;19.80;99.90
52387;DHT22;38317;53.084;6.960;2023-05-07T14:04:36;19.70;99.90
52387;DHT22;38317;53.084;6.960;2023-05-07T14:07:03;19.80;99.90
52387;DHT22;38317;53.084;6.960;2023-05-07T14:09:28;19.70;99.90
52387;DHT22;38317;53.084;6.960;2023-05-07T14:11:54;19.70;99.90
52387;DHT22;38317;53.084;6.960;2023-05-07T14:14:20;19.70;99.90
52387;DHT22;38317;53.084;6.960;2023-05-07T14:16:46;19.70;99.90
52387;DHT22;38317;53.084;6.960;2023-05-07T14:19:12;19.70;99.90
52387;DHT22;38317;53.084;6.960;2023-05-07T14:21:38;19.90;99.90
52387;DHT22;38317;53.084;6.960;2023-05-07T14:24:06;19.80;99.90
52387;DHT22;38317;53.084;6.960;2023-05-07T14:26:32;19.90;99.90
52387;DHT22;38317;53.084;6.960;2023-05-07T14:28:58;19.90;99.90
52387;DHT22;38317;53.084;6.960;2023-05-07T14:31:24;19.90;99.90
52387;DHT22;38317;53.084;6.960;2023-05-07T14:33:50;19.90;99.90
52387;DHT22;38317;53.084;6.960;2023-05-07T14:36:16;19.70;99.90
52387;DHT22;38317;53.084;6.960;2023-05-07T14:38:43;19.70;99.90
52387;DHT22;38317;53.084;6.960;2023-05-07T14:41:16;19.60;99.90
52387;DHT22;38317;53.084;6.960;2023-05-07T14:43:42;19.50;99.90
52387;DHT22;38317;53.084;6.960;2023-05-07T14:46:07;19.50;99.90
52387;DHT22;38317;53.084;6.960;2023-05-07T14:48:33;19.50;99.90
52387;DHT22;38317;53.084;6.960;2023-05-07T14:50:59;19.60;99.90
52387;DHT22;38317;53.084;6.960;2023-05-07T14:53:25;19.70;99.90
52387;DHT22;38317;53.084;6.960;2023-05-07T14:55:51;19.80;99.90
52387;DHT22;38317;53.084;6.960;2023-05-07T14:58:16;19.80;99.90
52387;DHT22;38317;53.084;6.960;2023-05-07T15:00:42;19.90;99.90
52387;DHT22;38317;53.084;6.960;2023-05-07T15:03:09;20.00;99.90
52387;DHT22;38317;53.084;6.960;2023-05-07T15:05:36;19.90;99.90
52387;DHT22;38317;53.084;6.960;2023-05-07T15:08:02;19.80;99.90
52387;DHT22;38317;53.084;6.960;2023-05-07T15:10:28;19.80;99.90
52387;DHT22;38317;53.084;6.960;2023-05-07T15:13:12;18.60;99.90
52387;DHT22;38317;53.084;6.960;2023-05-07T15:15:39;19.40;99.90
52387;DHT22;38317;53.084;6.960;2023-05-07T15:18:05;19.30;99.90
52387;DHT22;38317;53.084;6.960;2023-05-07T15:20:31;19.20;99.90
52387;DHT22;38317;53.084;6.960;2023-05-07T15:22:56;19.10;99.90
52387;DHT22;38317;53.084;6.960;2023-05-07T15:25:23;19.00;99.90
52387;DHT22;38317;53.084;6.960;2023-05-07T15:27:49;18.90;99.90
52387;DHT22;38317;53.084;6.960;2023-05-07T15:30:15;18.80;99.90
52387;DHT22;38317;53.084;6.960;2023-05-07T15:32:42;18.60;99.90
52387;DHT22;38317;53.084;6.960;2023-05-07T15:35:08;18.50;99.90
52387;DHT22;38317;53.084;6.960;2023-05-07T15:37:34;18.60;99.90
52387;DHT22;38317;53.084;6.960;2023-05-07T15:40:00;18.50;99.90
52387;DHT22;38317;53.084;6.960;2023-05-07T15:42:28;18.60;99.90
52387;DHT22;38317;53.084;6.960;2023-05-07T15:44:53;18.70;99.90
52387;DHT22;38317;53.084;6.960;2023-05-07T15:47:21;18.70;99.90